Roanoke Rapids, North Carolina
Current Conditions -  °F | °C
As of 9:55 PM on Friday 21 Nov 2014 (Local Time) from KIXA Reporting Station
Clear Clear  
Wind Chill: -3°   Ceiling: Unl
Heat Index: -3°   Visibility: 10mi
Dew Point: -7°   Wind: 0mph
Humidity: 74%   Direction: NA
Pressure: 30.56"   Gusts: NA
Location:  36.48°N, 77.65°W
Report Text: KIXA 220255Z AUTO 00000KT 10SM CLR M03/M07 A3056 RMK AO2
Loading
Personal Weather Stations






























Interactive Weather Map New forecast layout! Learn more

10-Day Weather Forecast

Advertisements
Track Severe Weather on mobile